Time;durP1;ratioP1;P1;durP2;ratioP2;P2;SDS_P1;SDS_P2;PMS_P1;PMS_P2;Temp;Humidity;BMP_temperature;BMP_pressure;BME280_temperature;BME280_humidity;BME280_pressure;Samples;Min_cycle;Max_cycle;Signal;HPM_P1;HPM_P2
2023/03/15 00:00:44;;;;;;;52.38;32.03;;;359.00;1638.40;;;;;;4969545;28;20131;-52
2023/03/15 00:03:10;;;;;;;54.95;33.10;;;358.70;1638.40;;;;;;4969753;28;20138;-54
2023/03/15 00:05:40;;;;;;;46.33;30.30;;;358.70;1664.00;;;;;;4969828;28;20122;-54
2023/03/15 00:08:06;;;;;;;30.38;18.23;;;358.70;1689.60;;;;;;4970883;28;20023;-54
2023/03/15 00:10:32;;;;;;;35.15;23.48;;;358.70;1715.20;;;;;;4971116;28;20085;-51
2023/03/15 00:12:57;;;;;;;50.05;31.58;;;358.70;1715.20;;;;;;4971726;28;20040;-54
2023/03/15 00:15:23;;;;;;;41.42;26.55;;;358.70;1740.80;;;;;;4970999;28;20477;-54
2023/03/15 00:17:49;;;;;;;35.17;20.63;;;358.60;1766.40;;;;;;4970592;28;20101;-53
2023/03/15 00:20:15;;;;;;;36.80;25.30;;;358.70;1766.40;;;;;;4971371;28;20041;-54
2023/03/15 00:22:41;;;;;;;50.78;34.53;;;358.70;1792.00;;;;;;4971185;28;20469;-53
2023/03/15 00:25:07;;;;;;;47.53;30.15;;;358.70;1792.00;;;;;;4971503;28;20039;-54
2023/03/15 00:27:33;;;;;;;62.10;36.58;;;358.70;1792.00;;;;;;4971108;28;20081;-53
2023/03/15 00:29:59;;;;;;;66.80;38.03;;;358.70;1817.60;;;;;;4970935;28;20050;-54
2023/03/15 00:32:24;;;;;;;49.38;29.73;;;358.80;1843.20;;;;;;4971247;28;20474;-53
2023/03/15 00:34:53;;;;;;;31.13;19.05;;;358.80;1843.20;;;;;;4971241;28;20031;-52
2023/03/15 00:37:19;;;;;;;74.40;43.10;;;358.80;1868.80;;;;;;4971117;28;20025;-54
2023/03/15 00:39:47;;;;;;;36.70;20.88;;;358.80;1868.80;;;;;;4971041;28;20022;-56
2023/03/15 00:42:16;;;;;;;51.55;32.60;;;358.80;1894.40;;;;;;4970869;28;20026;-52
2023/03/15 00:44:43;;;;;;;27.15;15.75;;;358.90;1894.40;;;;;;4971046;28;20094;-53
2023/03/15 00:47:13;;;;;;;37.28;21.25;;;358.90;1894.40;;;;;;4970721;28;20113;-54
2023/03/15 00:49:40;;;;;;;25.23;15.05;;;358.80;1894.40;;;;;;4970807;28;20042;-54
2023/03/15 00:52:06;;;;;;;27.98;15.98;;;358.80;1920.00;;;;;;4971447;28;20023;-55
2023/03/15 00:54:32;;;;;;;7.38;5.55;;;358.80;1920.00;;;;;;4970742;28;20058;-52
2023/03/15 00:57:01;;;;;;;14.73;8.70;;;358.90;1920.00;;;;;;4971008;28;20030;-52
2023/03/15 00:59:33;;;;;;;11.32;6.47;;;358.70;1945.60;;;;;;4970955;28;20035;-54
2023/03/15 01:02:04;;;;;;;8.30;4.78;;;358.70;1945.60;;;;;;4970741;28;20038;-53
2023/03/15 01:04:30;;;;;;;8.52;6.40;;;358.50;1945.60;;;;;;4970758;28;20031;-52
2023/03/15 01:06:57;;;;;;;8.63;4.57;;;358.50;1945.60;;;;;;4970932;28;20071;-52
2023/03/15 01:09:22;;;;;;;9.07;5.25;;;358.50;1945.60;;;;;;4970414;28;20023;-53
2023/03/15 01:11:48;;;;;;;8.88;5.88;;;358.50;1945.60;;;;;;4970836;28;20034;-52
2023/03/15 01:14:14;;;;;;;10.25;6.47;;;333.70;1945.60;;;;;;4970799;28;20117;-51
2023/03/15 01:16:40;;;;;;;12.98;7.90;;;333.70;1945.60;;;;;;4957086;28;20042;-52
2023/03/15 01:19:06;;;;;;;10.65;6.25;;;333.70;1971.20;;;;;;4971128;28;20027;-55
2023/03/15 01:21:31;;;;;;;31.83;15.43;;;333.70;1971.20;;;;;;4974698;28;20046;-53
2023/03/15 01:23:57;;;;;;;19.77;11.15;;;333.70;1971.20;;;;;;4974741;28;20031;-54
2023/03/15 01:26:23;;;;;;;115.45;63.90;;;333.70;1996.80;;;;;;4974179;28;20445;-53
2023/03/15 01:28:49;;;;;;;19.92;10.07;;;333.70;1971.20;;;;;;4974321;28;20497;-54
2023/03/15 01:31:24;;;;;;;19.80;11.13;;;333.70;1996.80;;;;;;4974448;28;20124;-52
2023/03/15 01:33:50;;;;;;;12.30;6.95;;;333.70;1996.80;;;;;;4962319;28;20069;-54
2023/03/15 01:36:16;;;;;;;55.35;34.97;;;333.70;1996.80;;;;;;4974500;28;20482;-53
2023/03/15 01:38:42;;;;;;;13.45;7.05;;;333.70;2022.40;;;;;;4974309;28;20027;-53
2023/03/15 01:41:09;;;;;;;14.45;9.32;;;333.70;1996.80;;;;;;4974208;28;20045;-54
2023/03/15 01:43:35;;;;;;;18.48;10.40;;;333.70;2022.40;;;;;;4974300;28;20022;-54
2023/03/15 01:46:01;;;;;;;29.38;18.65;;;333.70;2022.40;;;;;;4973586;28;20130;-54
2023/03/15 01:48:35;;;;;;;29.42;16.48;;;333.70;2022.40;;;;;;4974348;28;20074;-53
2023/03/15 01:51:08;;;;;;;10.13;4.70;;;358.40;2022.40;;;;;;4973599;28;20066;-52
2023/03/15 01:53:35;;;;;;;9.23;4.80;;;358.40;2022.40;;;;;;4974224;28;20027;-52
2023/03/15 01:56:02;;;;;;;7.43;4.85;;;358.50;2022.40;;;;;;4973561;28;20517;-53
2023/03/15 01:58:28;;;;;;;8.77;6.57;;;358.40;2022.40;;;;;;4974025;28;20034;-53
2023/03/15 02:00:54;;;;;;;12.20;8.00;;;333.70;2048.00;;;;;;4973937;28;20029;-54
2023/03/15 02:03:27;;;;;;;22.20;15.00;;;333.70;2048.00;;;;;;4973841;28;20035;-53
2023/03/15 02:05:57;;;;;;;13.98;7.25;;;333.70;2048.00;;;;;;4973951;28;20031;-55
2023/03/15 02:08:28;;;;;;;12.98;7.07;;;358.40;2048.00;;;;;;4974075;28;20462;-53
2023/03/15 02:10:57;;;;;;;9.85;7.03;;;358.40;2048.00;;;;;;4973779;28;20031;-55
2023/03/15 02:13:25;;;;;;;8.13;5.63;;;333.70;2073.60;;;;;;4973561;28;20058;-54
2023/03/15 02:15:52;;;;;;;8.15;6.00;;;333.70;2073.60;;;;;;4973802;28;20019;-53
2023/03/15 02:18:19;;;;;;;13.73;9.95;;;333.70;2073.60;;;;;;4973830;28;20022;-54
2023/03/15 02:21:21;;;;;;;6.07;4.43;;;358.40;2073.60;;;;;;4973468;28;20037;-55
2023/03/15 02:24:04;;;;;;;11.68;7.40;;;358.50;2073.60;;;;;;4973436;28;20054;-54
2023/03/15 02:26:44;;;;;;;9.73;7.03;;;358.50;2073.60;;;;;;4973304;28;20046;-55
2023/03/15 02:29:11;;;;;;;9.32;6.10;;;358.40;2073.60;;;;;;4973282;28;20034;-55
2023/03/15 02:31:37;;;;;;;7.53;4.43;;;358.40;2073.60;;;;;;4972990;28;20046;-53
2023/03/15 02:34:06;;;;;;;7.82;5.25;;;333.70;2073.60;;;;;;4973502;28;20018;-54
2023/03/15 02:36:33;;;;;;;12.85;8.55;;;333.70;2099.20;;;;;;4973119;28;20509;-54
2023/03/15 02:38:59;;;;;;;6.60;4.88;;;333.70;2099.20;;;;;;4972945;28;20031;-54
2023/03/15 02:41:35;;;;;;;6.05;4.13;;;333.70;2099.20;;;;;;4973258;28;20031;-54
2023/03/15 02:44:05;;;;;;;7.43;5.18;;;333.70;2124.80;;;;;;4973161;28;20026;-54
2023/03/15 02:46:31;;;;;;;14.93;7.63;;;333.70;2124.80;;;;;;4973051;28;20031;-54
2023/03/15 02:48:58;;;;;;;17.67;10.07;;;358.40;2099.20;;;;;;4972851;28;20098;-55
2023/03/15 02:51:27;;;;;;;8.82;5.80;;;358.50;2099.20;;;;;;4973198;28;20054;-54
2023/03/15 02:53:53;;;;;;;10.63;6.43;;;358.50;2099.20;;;;;;4973415;28;20031;-53
2023/03/15 02:56:19;;;;;;;10.90;4.18;;;358.50;2099.20;;;;;;4972516;28;20027;-54
2023/03/15 02:58:45;;;;;;;7.82;4.60;;;358.50;2124.80;;;;;;4973198;28;20021;-53
2023/03/15 03:01:12;;;;;;;13.73;6.80;;;358.50;2124.80;;;;;;4972388;28;20039;-53
2023/03/15 03:03:40;;;;;;;10.38;6.03;;;358.50;2124.80;;;;;;4972877;28;20031;-54
2023/03/15 03:06:06;;;;;;;24.27;12.88;;;358.50;2124.80;;;;;;4973200;28;20027;-54
2023/03/15 03:08:32;;;;;;;13.55;5.13;;;358.50;2124.80;;;;;;4973006;28;20110;-53
2023/03/15 03:10:57;;;;;;;13.20;8.35;;;358.50;2124.80;;;;;;4972589;28;20097;-55
2023/03/15 03:13:23;;;;;;;8.73;4.43;;;358.50;2150.40;;;;;;4972886;28;20019;-54
2023/03/15 03:15:57;;;;;;;8.82;6.13;;;358.50;2150.40;;;;;;4972763;28;20023;-54
2023/03/15 03:18:24;;;;;;;12.00;5.53;;;358.40;2201.60;;;;;;4972500;28;20385;-54
2023/03/15 03:20:50;;;;;;;6.32;4.30;;;358.40;2176.00;;;;;;4972476;28;20055;-54
2023/03/15 03:23:15;;;;;;;5.88;3.67;;;358.50;2176.00;;;;;;4972972;28;20023;-54
2023/03/15 03:25:41;;;;;;;10.20;4.60;;;358.40;2201.60;;;;;;4971955;28;20035;-53
2023/03/15 03:28:07;;;;;;;13.60;7.28;;;333.70;2227.20;;;;;;4972768;28;20457;-53
2023/03/15 03:30:34;;;;;;;16.23;7.72;;;333.70;2278.40;;;;;;4972401;28;20453;-54
2023/03/15 03:33:00;;;;;;;13.80;6.45;;;333.60;2304.00;;;;;;4971867;28;20145;-53
2023/03/15 03:35:25;;;;;;;7.70;4.53;;;333.50;2304.00;;;;;;4972510;28;20106;-54
2023/03/15 03:37:52;;;;;;;17.95;11.25;;;333.50;2329.60;;;;;;4971951;28;20073;-53
2023/03/15 03:40:18;;;;;;;23.52;14.20;;;333.40;2329.60;;;;;;4971872;28;20034;-54
2023/03/15 03:42:44;;;;;;;119.05;57.35;;;333.40;2329.60;;;;;;4971247;28;20027;-54
2023/03/15 03:45:10;;;;;;;24.13;16.40;;;333.50;2329.60;;;;;;4972143;28;20027;-54
2023/03/15 03:47:36;;;;;;;10.48;5.07;;;333.50;2329.60;;;;;;4972037;28;20397;-53
2023/03/15 03:50:01;;;;;;;11.60;5.30;;;333.50;2329.60;;;;;;4971646;28;20039;-53
2023/03/15 03:52:27;;;;;;;9.65;6.60;;;333.50;2329.60;;;;;;4972015;28;20045;-53
2023/03/15 03:54:53;;;;;;;6.68;4.18;;;358.50;2329.60;;;;;;4971736;28;20105;-53
2023/03/15 03:57:19;;;;;;;10.65;4.93;;;333.60;2329.60;;;;;;4971673;28;20037;-54
2023/03/15 03:59:44;;;;;;;9.35;5.13;;;333.50;2329.60;;;;;;4971932;28;20034;-55
2023/03/15 04:02:10;;;;;;;6.88;4.43;;;333.50;2329.60;;;;;;4971842;28;20031;-54
2023/03/15 04:04:39;;;;;;;6.97;4.63;;;333.40;2329.60;;;;;;4972006;28;20355;-53
2023/03/15 04:07:06;;;;;;;7.00;4.47;;;333.40;2329.60;;;;;;4971683;28;20077;-53
2023/03/15 04:09:36;;;;;;;8.18;5.05;;;333.50;2329.60;;;;;;4971418;28;20027;-52
2023/03/15 04:12:02;;;;;;;8.13;4.28;;;333.50;2329.60;;;;;;4971107;28;20078;-53
2023/03/15 04:14:28;;;;;;;8.48;4.25;;;333.30;2329.60;;;;;;4971777;28;20046;-54
2023/03/15 04:16:53;;;;;;;8.13;4.93;;;333.30;2329.60;;;;;;4971405;28;20489;-53
2023/03/15 04:19:19;;;;;;;6.97;4.47;;;333.20;2329.60;;;;;;4971260;28;20061;-53
2023/03/15 04:21:46;;;;;;;8.48;5.30;;;333.20;2329.60;;;;;;4954307;28;20070;-53
2023/03/15 04:24:12;;;;;;;8.25;4.10;;;333.20;2329.60;;;;;;4971221;28;20031;-53
2023/03/15 04:26:38;;;;;;;8.40;4.22;;;333.10;2329.60;;;;;;4971411;28;20038;-53
2023/03/15 04:29:04;;;;;;;9.55;4.97;;;333.10;2329.60;;;;;;4971479;28;20072;-54
2023/03/15 04:31:36;;;;;;;15.80;8.38;;;333.20;2329.60;;;;;;4971082;28;20768;-53
2023/03/15 04:34:02;;;;;;;16.23;8.13;;;333.20;2329.60;;;;;;4971041;28;20014;-51
2023/03/15 04:36:28;;;;;;;12.43;7.03;;;333.20;2329.60;;;;;;4971157;28;20491;-53
2023/03/15 04:39:04;;;;;;;9.38;5.90;;;333.10;2329.60;;;;;;4971335;28;20037;-54
2023/03/15 04:41:30;;;;;;;12.13;7.75;;;333.10;2329.60;;;;;;4971115;28;20128;-54
2023/03/15 04:43:56;;;;;;;13.45;7.80;;;333.10;2329.60;;;;;;4971228;28;20367;-54
2023/03/15 04:46:22;;;;;;;10.15;6.63;;;333.10;2329.60;;;;;;4970580;28;20058;-53
2023/03/15 04:48:47;;;;;;;13.93;8.13;;;332.90;2329.60;;;;;;4971260;28;20029;-53
2023/03/15 04:51:13;;;;;;;11.63;7.47;;;332.90;2329.60;;;;;;4970746;28;20070;-52
2023/03/15 04:53:39;;;;;;;10.93;7.35;;;333.00;2329.60;;;;;;4971072;28;20081;-53
2023/03/15 04:56:05;;;;;;;10.35;6.35;;;332.90;2329.60;;;;;;4970992;28;20477;-53
2023/03/15 04:58:31;;;;;;;7.75;5.47;;;308.10;2304.00;;;;;;4970826;28;20065;-53
2023/03/15 05:00:57;;;;;;;8.68;5.55;;;308.10;2304.00;;;;;;4970790;28;20054;-53
2023/03/15 05:03:22;;;;;;;7.60;5.78;;;308.10;2304.00;;;;;;4970589;28;20590;-53
2023/03/15 05:05:48;;;;;;;11.10;5.90;;;308.10;2304.00;;;;;;4970871;28;20493;-53
2023/03/15 05:08:14;;;;;;;8.85;5.55;;;307.90;2304.00;;;;;;4970935;28;20045;-53
2023/03/15 05:10:40;;;;;;;13.52;6.18;;;308.00;2304.00;;;;;;4970633;28;20496;-53
2023/03/15 05:13:05;;;;;;;59.33;53.80;;;308.00;2304.00;;;;;;4971091;28;20023;-54
2023/03/15 05:15:31;;;;;;;9.60;6.20;;;307.90;2304.00;;;;;;4957336;28;20034;-55
2023/03/15 05:17:57;;;;;;;10.00;5.95;;;307.90;2304.00;;;;;;4951289;28;20046;-53
2023/03/15 05:20:24;;;;;;;9.55;6.72;;;307.90;2304.00;;;;;;4967522;28;20023;-53
2023/03/15 05:22:52;;;;;;;10.43;7.90;;;307.90;2304.00;;;;;;4970588;28;20509;-53
2023/03/15 05:25:18;;;;;;;13.98;8.30;;;307.90;2304.00;;;;;;4970633;28;20481;-53
2023/03/15 05:27:45;;;;;;;12.70;10.05;;;307.90;2304.00;;;;;;4970462;28;20062;-53
2023/03/15 05:30:11;;;;;;;18.73;12.40;;;308.10;2304.00;;;;;;4970265;28;20030;-53
2023/03/15 05:32:38;;;;;;;20.50;14.70;;;308.00;2304.00;;;;;;4970951;28;20401;-53
2023/03/15 05:35:06;;;;;;;17.38;11.98;;;307.90;2304.00;;;;;;4954429;28;20059;-52
2023/03/15 05:37:32;;;;;;;15.20;9.60;;;307.80;2304.00;;;;;;4958507;28;20385;-54
2023/03/15 05:40:00;;;;;;;10.32;7.88;;;307.80;2304.00;;;;;;4970509;28;20389;-53
2023/03/15 05:42:26;;;;;;;13.23;8.63;;;307.90;2304.00;;;;;;4970609;28;20051;-54
2023/03/15 05:44:55;;;;;;;9.73;7.28;;;307.90;2304.00;;;;;;4970310;28;20066;-53
2023/03/15 05:47:22;;;;;;;11.25;7.10;;;307.80;2304.00;;;;;;4969874;28;20035;-54
2023/03/15 05:49:48;;;;;;;13.57;7.40;;;307.80;2304.00;;;;;;4970376;28;20576;-53
2023/03/15 05:52:15;;;;;;;11.38;7.55;;;307.70;2304.00;;;;;;4970436;28;20046;-53
2023/03/15 05:54:40;;;;;;;10.77;7.60;;;307.90;2304.00;;;;;;4970347;28;20027;-54
2023/03/15 05:57:06;;;;;;;13.57;8.23;;;307.80;2304.00;;;;;;4970450;28;20030;-54
2023/03/15 05:59:32;;;;;;;9.68;6.45;;;307.80;2304.00;;;;;;4970158;28;20110;-54
2023/03/15 06:01:57;;;;;;;10.77;7.15;;;307.90;2304.00;;;;;;4970462;28;20034;-55
2023/03/15 06:04:23;;;;;;;10.75;7.00;;;307.70;2304.00;;;;;;4970346;28;20454;-54
2023/03/15 06:06:50;;;;;;;10.15;6.57;;;307.90;2304.00;;;;;;4973242;28;20430;-53
2023/03/15 06:09:16;;;;;;;9.20;6.28;;;307.90;2304.00;;;;;;4973827;28;20051;-54
2023/03/15 06:11:41;;;;;;;8.57;6.70;;;307.90;2304.00;;;;;;4973758;28;20038;-53
2023/03/15 06:14:07;;;;;;;7.70;6.07;;;307.80;2304.00;;;;;;4948525;29;20039;-53
2023/03/15 06:16:33;;;;;;;8.77;6.72;;;308.10;2304.00;;;;;;4943015;28;20035;-53
2023/03/15 06:18:58;;;;;;;31.65;9.85;;;307.80;2304.00;;;;;;4973588;28;20102;-54
2023/03/15 06:21:24;;;;;;;10.23;6.95;;;307.60;2304.00;;;;;;4956614;28;20377;-53
2023/03/15 06:23:50;;;;;;;20.05;13.38;;;307.60;2304.00;;;;;;4973570;28;20478;-54
2023/03/15 06:26:17;;;;;;;13.07;9.88;;;307.60;2304.00;;;;;;4962360;28;20421;-53
2023/03/15 06:28:44;;;;;;;8.27;6.45;;;307.50;2304.00;;;;;;4972220;28;20019;-55
2023/03/15 06:31:11;;;;;;;7.75;5.40;;;307.30;2304.00;;;;;;4973424;28;20027;-55
2023/03/15 06:33:38;;;;;;;23.65;17.13;;;307.50;2304.00;;;;;;4973675;28;20393;-54
2023/03/15 06:36:04;;;;;;;65.28;42.55;;;307.40;2304.00;;;;;;4973709;28;20026;-53
2023/03/15 06:38:30;;;;;;;32.25;18.17;;;307.30;2304.00;;;;;;4973205;28;20018;-53
2023/03/15 06:40:59;;;;;;;50.80;33.13;;;282.50;2278.40;;;;;;4969857;28;20019;-52
2023/03/15 06:43:25;;;;;;;234.68;171.05;;;282.40;2278.40;;;;;;4964056;28;20063;-69
2023/03/15 06:45:52;;;;;;;69.93;45.80;;;282.40;2278.40;;;;;;4972900;28;20066;-70
2023/03/15 06:48:18;;;;;;;30.50;22.20;;;282.30;2278.40;;;;;;4972920;28;20031;-70
2023/03/15 06:50:43;;;;;;;29.55;22.10;;;282.50;2278.40;;;;;;4973201;28;20091;-70
2023/03/15 06:53:09;;;;;;;6.15;5.25;;;282.40;2278.40;;;;;;4973310;28;20011;-71
2023/03/15 06:55:35;;;;;;;9.27;7.10;;;282.30;2278.40;;;;;;4972943;28;20026;-70
2023/03/15 06:58:00;;;;;;;10.55;6.18;;;282.40;2278.40;;;;;;4972755;28;20106;-64
2023/03/15 07:00:27;;;;;;;8.88;6.55;;;282.30;2278.40;;;;;;4972717;28;20042;-66
2023/03/15 07:02:52;;;;;;;7.45;5.60;;;282.30;2278.40;;;;;;4973074;28;20019;-65
2023/03/15 07:05:18;;;;;;;7.93;6.32;;;282.40;2278.40;;;;;;4973071;28;20500;-66
2023/03/15 07:07:44;;;;;;;8.45;7.13;;;282.30;2278.40;;;;;;4973184;28;20121;-65
2023/03/15 07:10:10;;;;;;;7.78;5.78;;;282.20;2278.40;;;;;;4972932;28;20014;-68
2023/03/15 07:12:35;;;;;;;34.63;24.60;;;282.20;2278.40;;;;;;4972922;28;20029;-65
2023/03/15 07:15:01;;;;;;;10.63;9.63;;;282.30;2278.40;;;;;;4972448;28;20023;-66
2023/03/15 07:17:27;;;;;;;6.90;5.13;;;282.10;2278.40;;;;;;4972701;28;20117;-66
2023/03/15 07:19:53;;;;;;;9.23;7.43;;;282.20;2278.40;;;;;;4972427;28;20034;-65
2023/03/15 07:22:21;;;;;;;10.50;7.93;;;282.10;2278.40;;;;;;4964782;28;20047;-68
2023/03/15 07:24:47;;;;;;;10.93;9.85;;;282.10;2278.40;;;;;;4962313;28;20053;-68
2023/03/15 07:27:13;;;;;;;8.70;6.25;;;282.10;2278.40;;;;;;4972131;28;20505;-68
2023/03/15 07:29:40;;;;;;;8.48;6.05;;;282.10;2278.40;;;;;;4971841;28;20097;-68
2023/03/15 07:32:06;;;;;;;11.30;8.32;;;282.10;2278.40;;;;;;4972498;28;20125;-67
2023/03/15 07:34:32;;;;;;;7.90;5.68;;;282.10;2278.40;;;;;;4972384;28;20381;-67
2023/03/15 07:36:57;;;;;;;6.15;5.10;;;282.10;2278.40;;;;;;4972273;28;20126;-69
2023/03/15 07:39:25;;;;;;;11.50;10.32;;;282.20;2278.40;;;;;;4972285;28;20027;-67
2023/03/15 07:41:51;;;;;;;5.53;4.55;;;282.00;2278.40;;;;;;4972184;28;20026;-67
2023/03/15 07:44:17;;;;;;;5.60;4.85;;;281.90;2278.40;;;;;;4972261;28;20037;-67
2023/03/15 07:46:43;;;;;;;6.45;4.53;;;281.90;2278.40;;;;;;4971961;28;20031;-68
2023/03/15 07:49:10;;;;;;;6.45;4.63;;;282.00;2278.40;;;;;;4972113;28;20043;-68
2023/03/15 07:51:35;;;;;;;9.73;8.57;;;282.10;2278.40;;;;;;4971875;28;20041;-67
2023/03/15 07:54:01;;;;;;;8.82;5.07;;;282.10;2278.40;;;;;;4971674;28;20023;-66
2023/03/15 07:56:27;;;;;;;8.73;5.50;;;282.10;2278.40;;;;;;4972020;28;20058;-67
2023/03/15 07:58:52;;;;;;;8.48;6.18;;;282.00;2278.40;;;;;;4971814;28;20474;-67
2023/03/15 08:01:18;;;;;;;7.88;5.60;;;282.00;2278.40;;;;;;4971886;28;20053;-67
2023/03/15 08:03:44;;;;;;;5.95;4.22;;;282.00;2278.40;;;;;;4972054;28;20033;-67
2023/03/15 08:06:09;;;;;;;6.40;4.55;;;282.00;2278.40;;;;;;4971637;28;20126;-67
2023/03/15 08:08:38;;;;;;;11.18;6.43;;;282.00;2278.40;;;;;;4971912;28;20102;-67
2023/03/15 08:11:05;;;;;;;10.13;5.93;;;282.00;2278.40;;;;;;4976668;28;20057;-67
2023/03/15 08:13:30;;;;;;;9.35;5.32;;;282.00;2278.40;;;;;;4978710;28;20030;-68
2023/03/15 08:15:56;;;;;;;8.00;5.45;;;282.00;2278.40;;;;;;4971621;28;20589;-67
2023/03/15 08:18:22;;;;;;;11.00;4.93;;;282.00;2278.40;;;;;;4971662;28;20026;-68
2023/03/15 08:20:48;;;;;;;9.15;6.10;;;282.20;2278.40;;;;;;4958835;28;20031;-67
2023/03/15 08:23:15;;;;;;;5.88;4.85;;;282.10;2278.40;;;;;;4971270;28;20034;-69
2023/03/15 08:25:43;;;;;;;7.18;5.55;;;281.90;2278.40;;;;;;4958484;28;20022;-69
2023/03/15 08:28:10;;;;;;;7.18;5.88;;;281.70;2278.40;;;;;;4970950;28;20033;-68
2023/03/15 08:30:36;;;;;;;10.82;5.43;;;281.70;2278.40;;;;;;4971441;28;20027;-67
2023/03/15 08:33:02;;;;;;;11.50;6.95;;;281.70;2278.40;;;;;;4971108;28;20508;-67
2023/03/15 08:35:29;;;;;;;6.60;5.47;;;281.60;2278.40;;;;;;4971243;28;20034;-67
2023/03/15 08:37:55;;;;;;;7.63;5.20;;;281.70;2278.40;;;;;;4971276;28;20034;-66
2023/03/15 08:40:24;;;;;;;7.47;5.60;;;281.70;2278.40;;;;;;4970898;28;20381;-66
2023/03/15 08:42:51;;;;;;;8.75;5.93;;;281.60;2278.40;;;;;;4971035;28;20026;-65
2023/03/15 08:45:17;;;;;;;8.85;7.95;;;256.90;2252.80;;;;;;4971209;28;20085;-67
2023/03/15 08:47:43;;;;;;;9.05;6.88;;;281.60;2278.40;;;;;;4970900;28;20470;-67
2023/03/15 08:50:12;;;;;;;8.73;6.13;;;256.90;2252.80;;;;;;4970665;28;20043;-67
2023/03/15 08:52:38;;;;;;;11.00;6.15;;;256.90;2252.80;;;;;;4971402;28;20029;-67
2023/03/15 08:55:05;;;;;;;8.85;5.97;;;256.80;2252.80;;;;;;4970904;28;20528;-67
2023/03/15 08:57:32;;;;;;;7.88;6.95;;;256.80;2252.80;;;;;;4970843;28;20393;-67
2023/03/15 09:00:24;;;;;;;9.73;6.82;;;256.50;2252.80;;;;;;4971062;28;20034;-67
2023/03/15 09:02:50;;;;;;;9.05;6.63;;;256.50;2252.80;;;;;;4970239;28;20179;-67
2023/03/15 09:05:17;;;;;;;7.93;6.47;;;256.40;2252.80;;;;;;4971252;28;20027;-68
2023/03/15 09:07:44;;;;;;;8.20;6.53;;;256.30;2252.80;;;;;;4970940;28;20035;-67
2023/03/15 09:10:14;;;;;;;9.65;8.02;;;256.10;2252.80;;;;;;4970553;28;20027;-68
2023/03/15 09:12:41;;;;;;;12.40;8.65;;;256.20;2252.80;;;;;;4958917;28;20481;-68
2023/03/15 09:15:08;;;;;;;7.25;5.88;;;256.20;2252.80;;;;;;4970722;28;20062;-67
2023/03/15 09:17:33;;;;;;;8.23;5.90;;;256.20;2252.80;;;;;;4970879;28;20084;-68
2023/03/15 09:19:59;;;;;;;7.53;6.10;;;256.10;2252.80;;;;;;4970811;28;20473;-67
2023/03/15 09:22:25;;;;;;;9.82;6.80;;;256.00;2252.80;;;;;;4970768;28;20042;-67
2023/03/15 09:24:51;;;;;;;7.95;6.60;;;231.30;2252.80;;;;;;4970844;28;20106;-67
2023/03/15 09:27:17;;;;;;;7.15;5.72;;;256.00;2252.80;;;;;;4970913;28;20035;-68
2023/03/15 09:29:43;;;;;;;7.90;6.80;;;256.00;2252.80;;;;;;4970377;28;20442;-68
2023/03/15 09:32:10;;;;;;;7.72;5.75;;;256.10;2252.80;;;;;;4970629;28;20062;-68
2023/03/15 09:34:36;;;;;;;9.98;6.47;;;231.30;2252.80;;;;;;4970569;28;20038;-68
2023/03/15 09:37:02;;;;;;;8.50;6.45;;;231.30;2252.80;;;;;;4970927;28;20023;-67
2023/03/15 09:39:28;;;;;;;8.27;6.30;;;231.20;2252.80;;;;;;4970377;28;20027;-68
2023/03/15 09:41:57;;;;;;;10.18;8.10;;;231.20;2252.80;;;;;;4960569;28;20026;-67
2023/03/15 09:44:26;;;;;;;8.65;7.28;;;231.20;2252.80;;;;;;4974153;28;20053;-67
2023/03/15 09:47:23;;;;;;;8.60;6.70;;;231.20;2252.80;;;;;;4974117;28;20050;-67
2023/03/15 09:50:03;;;;;;;8.25;6.00;;;231.20;2252.80;;;;;;4973616;28;20045;-67
2023/03/15 09:52:34;;;;;;;8.00;5.72;;;231.30;2252.80;;;;;;4973950;28;20023;-68
2023/03/15 09:55:10;;;;;;;8.90;6.28;;;231.30;2252.80;;;;;;4973926;28;20032;-68
2023/03/15 09:57:52;;;;;;;10.32;7.38;;;231.00;2252.80;;;;;;4973944;28;20561;-67
2023/03/15 10:00:21;;;;;;;8.90;7.13;;;231.10;2252.80;;;;;;4974094;28;20046;-67
2023/03/15 10:03:00;;;;;;;9.00;6.10;;;231.00;2252.80;;;;;;4974452;28;20031;-67
2023/03/15 10:05:34;;;;;;;10.65;8.00;;;231.00;2252.80;;;;;;4956661;28;20118;-68
2023/03/15 10:07:59;;;;;;;9.35;7.63;;;231.00;2252.80;;;;;;4973942;28;20034;-67
2023/03/15 10:10:35;;;;;;;7.85;6.65;;;231.00;2252.80;;;;;;4974006;28;20536;-68
2023/03/15 10:13:15;;;;;;;8.05;6.05;;;230.90;2252.80;;;;;;4973975;28;20061;-67
2023/03/15 10:16:07;;;;;;;7.65;6.53;;;230.90;2252.80;;;;;;4974047;28;20351;-68
2023/03/15 10:18:37;;;;;;;8.00;7.05;;;231.00;2252.80;;;;;;4973477;28;20054;-67
2023/03/15 10:21:24;;;;;;;8.27;6.10;;;231.00;2252.80;;;;;;4973817;28;20452;-66
2023/03/15 10:23:53;;;;;;;7.32;5.88;;;231.10;2252.80;;;;;;4973415;28;20014;-65
2023/03/15 10:26:28;;;;;;;7.55;6.13;;;231.00;2252.80;;;;;;4956111;28;20549;-69
2023/03/15 10:28:54;;;;;;;8.13;6.13;;;231.10;2252.80;;;;;;4973318;28;20102;-69
2023/03/15 10:31:33;;;;;;;6.75;5.10;;;231.00;2252.80;;;;;;4973545;28;20110;-69
2023/03/15 10:33:59;;;;;;;7.07;5.47;;;231.00;2252.80;;;;;;4973618;28;20056;-69
2023/03/15 10:36:25;;;;;;;6.97;4.65;;;231.10;2252.80;;;;;;4973431;28;20033;-69
2023/03/15 10:38:51;;;;;;;23.42;21.23;;;231.00;2252.80;;;;;;4973325;28;20022;-69
2023/03/15 10:41:40;;;;;;;6.60;4.93;;;231.00;2252.80;;;;;;4973472;28;20035;-69
2023/03/15 10:44:22;;;;;;;9.32;8.40;;;231.00;2252.80;;;;;;4973620;28;20080;-69
2023/03/15 10:47:12;;;;;;;6.47;5.05;;;230.80;2252.80;;;;;;4961058;28;20085;-68
2023/03/15 10:49:40;;;;;;;6.05;4.45;;;230.70;2252.80;;;;;;4973306;28;20077;-70
2023/03/15 10:52:23;;;;;;;7.00;5.65;;;230.70;2252.80;;;;;;4973111;28;20103;-69
2023/03/15 10:54:51;;;;;;;8.52;5.38;;;230.70;2252.80;;;;;;4973303;28;20038;-69
2023/03/15 10:57:20;;;;;;;71.00;48.97;;;230.60;2252.80;;;;;;4973074;28;20027;-69
2023/03/15 11:02:24;;;;;;;15.43;10.65;;;205.70;2252.80;;;;;;5206870;23;20058;-59
2023/03/15 11:05:01;;;;;;;7.82;6.00;;;230.40;2252.80;;;;;;4972840;28;20476;-61
2023/03/15 11:07:27;;;;;;;13.68;9.38;;;205.60;2252.80;;;;;;4973084;28;20062;-61
2023/03/15 11:09:59;;;;;;;8.50;6.50;;;205.60;2252.80;;;;;;4972712;28;20551;-59
2023/03/15 11:12:27;;;;;;;9.85;6.97;;;205.50;2252.80;;;;;;4972940;28;20053;-58
2023/03/15 11:14:59;;;;;;;6.60;5.45;;;205.30;2252.80;;;;;;4972705;28;20077;-61
2023/03/15 11:17:29;;;;;;;5.38;4.30;;;205.40;2252.80;;;;;;4972639;28;20070;-59
2023/03/15 11:20:11;;;;;;;8.20;6.05;;;205.30;2252.80;;;;;;4970958;28;20071;-61
2023/03/15 11:22:38;;;;;;;7.38;5.47;;;205.20;2252.80;;;;;;4972450;28;20097;-60
2023/03/15 11:25:07;;;;;;;8.85;5.43;;;205.20;2252.80;;;;;;4972044;28;20393;-59
2023/03/15 11:27:33;;;;;;;10.90;8.18;;;205.20;2252.80;;;;;;4972393;28;20129;-59
2023/03/15 11:30:01;;;;;;;16.90;15.07;;;205.20;2252.80;;;;;;4972187;28;20477;-60
2023/03/15 11:32:30;;;;;;;7.53;5.35;;;205.00;2252.80;;;;;;4971690;28;20027;-60
2023/03/15 11:35:24;;;;;;;6.28;4.68;;;205.00;2252.80;;;;;;4972004;28;20030;-60
2023/03/15 11:37:52;;;;;;;7.78;5.03;;;205.10;2252.80;;;;;;4970332;28;20035;-60
2023/03/15 11:40:31;;;;;;;4.47;3.30;;;205.10;2252.80;;;;;;4972148;28;20027;-61
2023/03/15 11:43:03;;;;;;;5.45;3.65;;;204.80;2252.80;;;;;;4971965;28;20022;-60
2023/03/15 11:45:40;;;;;;;6.00;4.32;;;204.80;2252.80;;;;;;4971962;28;20054;-61
2023/03/15 11:48:43;;;;;;;6.25;4.65;;;179.90;2252.80;;;;;;4971627;28;20085;-60
2023/03/15 11:51:11;;;;;;;5.28;4.30;;;179.80;2252.80;;;;;;4968287;28;20058;-61
2023/03/15 11:53:46;;;;;;;5.25;3.42;;;179.90;2252.80;;;;;;4971685;28;20023;-60
2023/03/15 11:56:43;;;;;;;7.05;5.95;;;180.00;2252.80;;;;;;4971955;28;20086;-60
2023/03/15 11:59:43;;;;;;;5.00;3.75;;;179.90;2252.80;;;;;;4960073;28;20046;-60
2023/03/15 12:02:12;;;;;;;5.57;4.10;;;179.90;2252.80;;;;;;4913295;29;20102;-59
2023/03/15 12:04:45;;;;;;;5.50;3.92;;;179.90;2252.80;;;;;;4930307;29;20047;-60
2023/03/15 12:07:17;;;;;;;7.55;4.53;;;179.90;2252.80;;;;;;4930920;29;20453;-60
2023/03/15 12:10:01;;;;;;;7.70;4.70;;;180.00;2252.80;;;;;;4930671;29;20422;-59
2023/03/15 12:12:27;;;;;;;10.93;7.68;;;180.00;2252.80;;;;;;4930999;29;20028;-61
2023/03/15 12:15:17;;;;;;;8.25;7.10;;;180.00;2252.80;;;;;;4930591;29;20031;-60
2023/03/15 12:17:55;;;;;;;7.22;5.22;;;180.10;2252.80;;;;;;4930366;29;20035;-60
2023/03/15 12:20:34;;;;;;;6.22;4.05;;;204.80;2252.80;;;;;;4930620;29;20062;-59